Time;durP1;ratioP1;P1;durP2;ratioP2;P2;SDS_P1;SDS_P2;PMS_P1;PMS_P2;Temp;Humidity;BMP_temperature;BMP_pressure;BME280_temperature;BME280_humidity;BME280_pressure;Samples;Min_cycle;Max_cycle;Signal;HPM_P1;HPM_P2
2022/08/01 00:02:23;;;;;;;4.55;2.00;;;;;;;19.55;87.69;100560.28;1748293;81;25719;-61
2022/08/01 00:04:50;;;;;;;7.35;2.50;;;;;;;19.54;88.46;100564.05;1748317;82;25791;-61
2022/08/01 00:07:17;;;;;;;3.52;2.30;;;;;;;19.53;87.77;100565.13;1748105;82;25482;-61
2022/08/01 00:09:44;;;;;;;4.20;2.05;;;;;;;19.54;87.78;100574.14;1748554;82;27603;-61
2022/08/01 00:12:10;;;;;;;6.45;2.37;;;;;;;19.58;88.05;100560.94;1748049;81;25758;-62
2022/08/01 00:14:37;;;;;;;5.35;2.12;;;;;;;19.60;87.86;100560.22;1748336;82;25656;-62
2022/08/01 00:17:04;;;;;;;2.35;2.02;;;;;;;19.63;87.76;100560.66;1748025;82;25780;-62
2022/08/01 00:19:32;;;;;;;3.25;2.15;;;;;;;19.64;87.59;100558.75;1748319;81;25731;-62
2022/08/01 00:21:59;;;;;;;5.72;2.45;;;;;;;19.62;87.25;100562.23;1748001;82;27461;-62
2022/08/01 00:24:26;;;;;;;9.58;2.60;;;;;;;19.53;87.24;100555.58;1748179;82;25933;-62
2022/08/01 00:26:54;;;;;;;4.03;2.50;;;;;;;19.48;87.24;100553.13;1748265;82;25787;-61
2022/08/01 00:29:21;;;;;;;5.08;2.35;;;;;;;19.45;87.37;100550.78;1748484;82;26296;-61
2022/08/01 00:31:48;;;;;;;4.40;2.10;;;;;;;19.42;87.49;100552.54;1748380;82;25652;-61
2022/08/01 00:34:15;;;;;;;6.65;1.92;;;;;;;19.38;87.83;100544.78;1748390;82;27484;-61
2022/08/01 00:36:42;;;;;;;4.40;2.33;;;;;;;19.40;87.90;100551.39;1747997;82;25852;-62
2022/08/01 00:39:09;;;;;;;4.25;2.25;;;;;;;19.44;88.65;100544.50;1748189;81;25751;-61
2022/08/01 00:41:35;;;;;;;6.28;2.60;;;;;;;19.49;88.40;100541.17;1748239;82;25978;-62
2022/08/01 00:44:05;;;;;;;4.05;2.15;;;;;;;19.51;88.66;100538.56;1748285;82;25948;-62
2022/08/01 00:46:33;;;;;;;5.00;2.37;;;;;;;19.51;88.81;100533.09;1760181;81;27537;-62
2022/08/01 00:49:01;;;;;;;3.65;2.70;;;;;;;19.46;87.98;100527.92;1768988;80;25756;-62
2022/08/01 00:51:29;;;;;;;3.12;2.52;;;;;;;19.41;88.01;100528.52;1769321;81;26099;-62
2022/08/01 00:53:56;;;;;;;4.80;3.15;;;;;;;19.41;88.27;100522.24;1768958;81;25860;-61
2022/08/01 00:56:26;;;;;;;13.25;2.92;;;;;;;19.44;88.40;100522.67;1755282;80;25848;-62
2022/08/01 00:58:54;;;;;;;3.77;2.40;;;;;;;19.48;88.63;100514.94;1743350;82;27439;-62
2022/08/01 01:01:22;;;;;;;8.53;2.42;;;;;;;19.48;88.32;100517.66;1760027;80;25788;-62
2022/08/01 01:03:52;;;;;;;2.72;2.30;;;;;;;19.49;88.87;100512.53;1774710;80;25733;-62
2022/08/01 01:06:33;;;;;;;2.80;2.27;;;;;;;19.48;88.19;100508.11;1774487;80;25949;-62
2022/08/01 01:09:17;;;;;;;2.77;2.45;;;;;;;19.47;87.99;100499.61;1774513;80;25743;-62
2022/08/01 01:12:01;;;;;;;8.53;2.75;;;;;;;19.44;87.74;100497.27;1774691;80;28457;-62
2022/08/01 01:14:44;;;;;;;5.20;2.75;;;;;;;19.38;87.62;100492.09;1774696;80;26081;-62
2022/08/01 01:17:09;;;;;;;6.28;2.90;;;;;;;19.30;87.65;100493.12;1772343;80;25703;-62
2022/08/01 01:19:41;;;;;;;8.50;2.85;;;;;;;19.29;87.77;100489.20;1774857;80;25759;-61
2022/08/01 01:22:59;;;;;;;6.08;2.72;;;;;;;19.29;88.32;100492.80;1771055;80;25466;-62
2022/08/01 01:25:38;;;;;;;7.40;2.50;;;;;;;19.35;88.72;100493.88;1769185;81;27405;-62
2022/08/01 01:28:42;;;;;;;4.03;2.95;;;;;;;19.35;88.53;100479.70;1769211;80;25778;-61
2022/08/01 01:31:11;;;;;;;7.58;3.15;;;;;;;19.34;89.10;100489.47;1768156;81;25822;-62
2022/08/01 01:33:41;;;;;;;15.68;2.90;;;;;;;19.31;88.77;100492.58;1769673;81;25817;-62
2022/08/01 01:36:11;;;;;;;4.58;2.62;;;;;;;19.33;88.88;100487.78;1769622;81;25689;-61
2022/08/01 01:38:44;;;;;;;7.20;2.65;;;;;;;19.33;89.68;100491.87;1769671;81;27573;-61
2022/08/01 01:41:12;;;;;;;;;;;;;;;19.30;89.05;100495.84;1772208;81;25884;-62
2022/08/01 01:43:40;;;;;;;5.20;2.25;;;;;;;19.22;88.66;100500.09;1769496;81;25435;-62
2022/08/01 01:46:11;;;;;;;6.30;2.27;;;;;;;19.14;88.95;100511.16;1740858;81;25783;-61
2022/08/01 01:48:39;;;;;;;4.78;1.85;;;;;;;19.02;88.94;100515.79;1660102;86;26347;-62
2022/08/01 01:51:07;;;;;;;2.52;1.72;;;;;;;18.94;89.43;100515.95;1660288;86;28243;-61
2022/08/01 01:53:36;;;;;;;2.42;1.65;;;;;;;18.88;89.90;100520.27;1660046;85;25577;-62
2022/08/01 01:56:04;;;;;;;7.50;3.10;;;;;;;18.90;90.21;100515.97;1708204;83;25808;-61
2022/08/01 01:58:34;;;;;;;3.17;1.90;;;;;;;18.86;90.14;100519.61;1725299;82;25950;-62
2022/08/01 02:01:02;;;;;;;4.33;2.05;;;;;;;18.83;90.57;100520.00;1743094;81;25792;-61
2022/08/01 02:03:31;;;;;;;2.92;2.25;;;;;;;18.80;90.08;100520.91;1769837;80;27034;-62
2022/08/01 02:05:59;;;;;;;2.42;1.70;;;;;;;18.80;90.55;100525.86;1769833;81;25760;-62
2022/08/01 02:08:29;;;;;;;4.30;1.62;;;;;;;18.81;90.67;100517.15;1769698;80;25716;-62
2022/08/01 02:13:43;;;;;;;4.08;1.70;;;;;;;18.86;90.80;100522.88;1769730;81;25759;-61
2022/08/01 02:16:12;;;;;;;3.58;1.90;;;;;;;18.88;90.42;100518.91;1769912;81;28203;-62
2022/08/01 02:18:39;;;;;;;4.08;1.80;;;;;;;18.88;89.96;100518.04;1769548;81;25653;-62
2022/08/01 02:21:11;;;;;;;6.45;1.92;;;;;;;18.86;89.61;100510.61;1769083;80;25777;-62
2022/08/01 02:23:40;;;;;;;3.55;2.05;;;;;;;18.87;90.18;100513.12;1764004;80;25828;-62
2022/08/01 02:26:12;;;;;;;4.22;2.15;;;;;;;18.88;89.91;100512.09;1764241;80;25736;-62
2022/08/01 02:28:45;;;;;;;5.43;2.50;;;;;;;18.87;89.55;100515.02;1764176;81;27588;-62
2022/08/01 02:31:15;;;;;;;3.72;2.05;;;;;;;18.83;89.44;100515.91;1763609;81;25747;-62
2022/08/01 02:33:47;;;;;;;3.17;2.22;;;;;;;18.79;89.43;100517.36;1763862;81;25819;-62
2022/08/01 02:36:16;;;;;;;4.70;2.30;;;;;;;18.76;89.43;100517.74;1763710;81;25831;-62
2022/08/01 02:38:46;;;;;;;2.33;2.00;;;;;;;18.72;89.46;100521.38;1763828;81;25753;-61
2022/08/01 02:41:19;;;;;;;3.67;2.12;;;;;;;18.73;89.81;100519.52;1764169;80;27422;-62
2022/08/01 02:43:50;;;;;;;4.28;2.45;;;;;;;18.73;89.75;100529.88;1764022;80;25745;-62
2022/08/01 02:46:22;;;;;;;2.60;2.05;;;;;;;18.72;89.79;100535.00;1755405;81;25729;-62
2022/08/01 02:48:52;;;;;;;8.58;2.70;;;;;;;18.72;89.84;100536.37;1746244;82;25774;-62
2022/08/01 02:51:23;;;;;;;3.42;2.37;;;;;;;18.73;90.21;100532.61;1746359;82;25983;-61
2022/08/01 02:53:52;;;;;;;6.08;2.80;;;;;;;18.76;90.19;100525.91;1746001;82;27473;-62
2022/08/01 02:56:21;;;;;;;5.80;2.50;;;;;;;18.84;90.48;100530.39;1748804;81;25741;-61
2022/08/01 02:58:51;;;;;;;5.50;2.67;;;;;;;18.90;90.54;100526.88;1751619;81;25748;-62
2022/08/01 03:01:19;;;;;;;4.10;2.70;;;;;;;18.95;90.56;100521.72;1757349;81;25779;-61
2022/08/01 03:03:46;;;;;;;6.15;2.40;;;;;;;18.96;91.22;100528.83;1710562;83;25808;-62
2022/08/01 03:06:15;;;;;;;6.33;2.90;;;;;;;18.97;90.94;100533.24;1710368;83;28337;-61
2022/08/01 03:08:44;;;;;;;6.50;2.33;;;;;;;18.97;90.66;100535.97;1710215;83;25999;-62
2022/08/01 03:11:13;;;;;;;6.95;2.92;;;;;;;18.96;90.17;100530.19;1710643;82;25808;-62
2022/08/01 03:13:43;;;;;;;4.08;3.00;;;;;;;18.97;90.28;100527.80;1710390;83;26696;-61
2022/08/01 03:16:12;;;;;;;9.95;2.70;;;;;;;19.02;90.51;100531.29;1710166;83;25468;-62
2022/08/01 03:18:41;;;;;;;5.33;3.20;;;;;;;19.03;90.26;100532.47;1710487;83;28215;-62
2022/08/01 03:21:10;;;;;;;9.85;3.30;;;;;;;19.05;90.21;100532.27;1710445;82;25968;-62
2022/08/01 03:23:39;;;;;;;7.05;2.75;;;;;;;19.05;90.33;100539.08;1714667;83;25790;-62
2022/08/01 03:26:07;;;;;;;13.75;3.80;;;;;;;19.06;90.24;100537.51;1715041;82;25874;-62
2022/08/01 03:28:36;;;;;;;5.30;2.70;;;;;;;19.06;90.10;100536.69;1714933;83;25964;-61
2022/08/01 03:31:03;;;;;;;6.75;2.60;;;;;;;19.04;90.12;100536.89;1714952;83;27527;-63
2022/08/01 03:33:30;;;;;;;7.70;2.77;;;;;;;19.01;89.95;100535.91;1704498;83;27334;-61
2022/08/01 03:36:00;;;;;;;6.40;2.85;;;;;;;19.00;89.93;100542.40;1714622;83;25745;-62
2022/08/01 03:38:31;;;;;;;10.00;2.60;;;;;;;19.00;89.87;100536.95;1714923;82;26015;-61
2022/08/01 03:41:11;;;;;;;15.05;3.47;;;;;;;19.03;90.08;100540.66;1714834;82;25890;-61
2022/08/01 03:43:52;;;;;;;9.78;2.98;;;;;;;19.04;89.67;100546.43;1714903;83;27475;-62
2022/08/01 03:46:30;;;;;;;11.10;3.22;;;;;;;19.08;89.68;100543.61;1740346;81;25824;-61
2022/08/01 03:49:01;;;;;;;7.37;2.92;;;;;;;19.15;89.65;100539.58;1767135;80;25819;-61
2022/08/01 03:51:30;;;;;;;8.05;3.40;;;;;;;19.22;89.54;100545.92;1769445;80;25968;-61
2022/08/01 03:54:00;;;;;;;7.30;3.00;;;;;;;19.30;89.57;100546.80;1769242;81;25745;-61
2022/08/01 03:56:31;;;;;;;7.45;3.00;;;;;;;19.38;89.49;100539.32;1754554;81;27626;-60
2022/08/01 03:59:01;;;;;;;9.93;3.75;;;;;;;19.47;89.40;100541.89;1743356;82;25769;-60
2022/08/01 04:01:31;;;;;;;8.50;3.50;;;;;;;19.55;89.42;100544.45;1746522;81;25783;-60
2022/08/01 04:04:00;;;;;;;5.28;3.33;;;;;;;19.63;89.32;100542.92;1748368;82;26813;-60
2022/08/01 04:06:27;;;;;;;5.12;3.42;;;;;;;19.70;88.71;100547.88;1748325;82;25788;-62
2022/08/01 04:08:55;;;;;;;6.03;3.87;;;;;;;19.77;88.93;100549.80;1748222;82;27463;-61
2022/08/01 04:11:25;;;;;;;7.87;3.42;;;;;;;19.86;88.94;100543.15;1748242;82;25973;-61
2022/08/01 04:13:53;;;;;;;12.15;3.70;;;;;;;19.94;88.45;100547.09;1748447;82;25826;-61
2022/08/01 04:16:21;;;;;;;11.68;3.75;;;;;;;20.07;88.70;100545.44;1746789;81;26860;-61
2022/08/01 04:18:49;;;;;;;7.37;3.75;;;;;;;20.20;88.73;100542.77;1751342;81;25748;-61
2022/08/01 04:21:23;;;;;;;10.48;4.35;;;;;;;20.40;88.78;100546.05;1750089;81;28319;-60
2022/08/01 04:23:53;;;;;;;7.45;3.30;;;;;;;20.52;88.17;100542.22;1749424;81;25876;-61
2022/08/01 04:26:23;;;;;;;7.53;3.05;;;;;;;20.63;88.16;100539.70;1747330;81;25530;-61
2022/08/01 04:28:52;;;;;;;10.20;4.20;;;;;;;20.69;87.80;100542.64;1754141;81;25975;-61
2022/08/01 04:31:19;;;;;;;10.68;4.83;;;;;;;20.75;87.82;100535.84;1749651;81;25800;-61
2022/08/01 04:33:50;;;;;;;6.05;4.10;;;;;;;20.85;87.78;100529.13;1747052;81;27616;-61
2022/08/01 04:36:20;;;;;;;9.28;4.90;;;;;;;20.92;87.78;100536.28;1750164;82;25808;-60
2022/08/01 04:38:51;;;;;;;8.85;5.90;;;;;;;20.96;87.07;100532.59;1750508;80;25794;-61
2022/08/01 04:41:20;;;;;;;11.75;7.90;;;;;;;21.01;86.76;100533.33;1750132;81;26462;-61
2022/08/01 04:43:47;;;;;;;13.05;7.20;;;;;;;21.09;86.66;100533.11;1757994;81;26501;-61
2022/08/01 04:46:15;;;;;;;8.93;6.78;;;;;;;21.23;86.49;100531.20;1757245;81;27491;-60
2022/08/01 04:48:42;;;;;;;9.40;6.58;;;;;;;21.34;85.50;100532.44;1745795;81;26189;-61
2022/08/01 04:51:17;;;;;;;13.95;6.47;;;;;;;21.44;85.22;100531.47;1755501;81;25744;-60
2022/08/01 04:53:45;;;;;;;10.10;6.62;;;;;;;21.45;84.05;100530.42;1755920;81;26715;-61
2022/08/01 04:56:13;;;;;;;7.87;6.22;;;;;;;21.47;83.66;100528.83;1749954;81;25759;-61
2022/08/01 04:58:42;;;;;;;6.65;6.00;;;;;;;21.48;82.59;100521.77;1743816;82;28436;-61
2022/08/01 05:01:09;;;;;;;13.83;6.20;;;;;;;21.50;82.34;100528.41;1757142;80;25755;-61
2022/08/01 05:03:37;;;;;;;7.15;6.42;;;;;;;21.48;82.15;100531.34;1774793;80;25785;-61
2022/08/01 05:06:04;;;;;;;7.97;6.00;;;;;;;21.39;81.38;100535.36;1774627;80;25842;-61
2022/08/01 05:08:31;;;;;;;6.65;5.47;;;;;;;21.32;81.85;100536.77;1774430;80;25782;-61
2022/08/01 05:10:58;;;;;;;7.90;5.78;;;;;;;21.32;82.20;100536.77;1774668;80;27658;-60
2022/08/01 05:13:25;;;;;;;12.65;5.33;;;;;;;21.34;81.73;100533.81;1774509;80;25822;-60
2022/08/01 05:15:52;;;;;;;7.30;4.60;;;;;;;21.37;81.47;100540.23;1774654;80;25727;-59
2022/08/01 05:18:19;;;;;;;5.58;4.03;;;;;;;21.47;81.63;100538.41;1774492;80;25961;-61
2022/08/01 05:20:47;;;;;;;8.05;5.03;;;;;;;21.55;79.65;100535.44;1774479;80;25782;-60
2022/08/01 05:23:14;;;;;;;5.90;4.20;;;;;;;21.60;79.51;100533.45;1768986;80;27484;-60
2022/08/01 05:25:41;;;;;;;11.70;5.05;;;;;;;21.56;78.85;100533.02;1764072;80;25768;-60
2022/08/01 05:28:08;;;;;;;11.45;6.65;;;;;;;21.58;78.95;100537.24;1764276;80;25661;-60
2022/08/01 05:30:34;;;;;;;7.92;4.30;;;;;;;21.59;78.89;100535.36;1763876;80;25897;-60
2022/08/01 05:33:01;;;;;;;7.92;4.42;;;;;;;21.55;78.03;100536.30;1764065;80;26143;-60
2022/08/01 05:35:29;;;;;;;6.30;4.15;;;;;;;21.50;78.24;100535.25;1763796;81;27400;-60
2022/08/01 05:37:56;;;;;;;5.45;3.60;;;;;;;21.51;78.42;100532.83;1763927;80;25704;-60
2022/08/01 05:40:23;;;;;;;5.90;4.30;;;;;;;21.57;78.62;100536.07;1763761;80;25832;-60
2022/08/01 05:42:50;;;;;;;6.20;3.72;;;;;;;21.57;78.68;100538.81;1764404;80;26596;-60
2022/08/01 05:45:17;;;;;;;4.78;3.70;;;;;;;21.66;78.64;100542.16;1762926;80;25980;-60
2022/08/01 05:47:44;;;;;;;6.62;4.22;;;;;;;21.77;78.52;100544.78;1741086;82;27485;-61
2022/08/01 05:50:11;;;;;;;5.47;3.55;;;;;;;21.81;77.85;100544.64;1741446;82;25766;-61
2022/08/01 05:52:38;;;;;;;6.72;3.77;;;;;;;21.93;77.96;100548.41;1741098;82;25743;-61
2022/08/01 05:55:06;;;;;;;7.87;4.30;;;;;;;22.10;78.07;100545.16;1741024;82;25856;-61
2022/08/01 05:57:33;;;;;;;6.95;4.17;;;;;;;22.11;77.13;100547.67;1679929;85;25514;-61
2022/08/01 06:00:00;;;;;;;5.03;4.05;;;;;;;22.12;76.33;100553.47;1680190;84;27497;-61
2022/08/01 06:02:27;;;;;;;5.65;3.77;;;;;;;22.09;76.46;100553.06;1679748;85;25885;-61
2022/08/01 06:04:55;;;;;;;8.23;3.37;;;;;;;22.11;76.00;100553.16;1745875;82;25779;-61
2022/08/01 06:07:22;;;;;;;4.15;2.98;;;;;;;22.08;75.52;100549.50;1745949;82;25800;-61
2022/08/01 06:09:49;;;;;;;5.20;2.92;;;;;;;22.03;75.57;100553.41;1746088;82;26653;-61
2022/08/01 06:12:16;;;;;;;7.65;3.20;;;;;;;22.06;75.61;100552.98;1745970;82;27490;-61
2022/08/01 06:14:43;;;;;;;5.28;3.62;;;;;;;22.02;75.36;100550.34;1745796;82;25811;-61
2022/08/01 06:17:10;;;;;;;3.35;3.05;;;;;;;22.05;75.48;100549.92;1745932;82;25872;-60
2022/08/01 06:19:37;;;;;;;8.23;2.92;;;;;;;22.15;74.83;100553.55;1746039;82;26593;-61
2022/08/01 06:22:04;;;;;;;3.87;2.62;;;;;;;22.28;73.66;100548.53;1745975;82;25742;-61
2022/08/01 06:24:31;;;;;;;5.12;2.87;;;;;;;22.36;74.25;100547.75;1749981;81;27483;-61
2022/08/01 06:26:58;;;;;;;5.83;2.45;;;;;;;22.39;73.39;100556.06;1750779;81;25741;-61
2022/08/01 06:29:24;;;;;;;3.15;2.70;;;;;;;22.42;73.51;100552.92;1750696;81;25856;-61
2022/08/01 06:31:51;;;;;;;3.42;2.87;;;;;;;22.37;73.24;100555.43;1750764;81;25903;-61
2022/08/01 06:34:18;;;;;;;4.22;2.50;;;;;;;22.38;73.26;100561.77;1750744;81;25836;-61
2022/08/01 06:36:45;;;;;;;4.87;3.12;;;;;;;22.46;72.75;100555.52;1750824;81;27388;-61
2022/08/01 06:39:12;;;;;;;3.08;2.55;;;;;;;22.66;72.06;100554.55;1750692;81;25751;-61
2022/08/01 06:41:41;;;;;;;4.30;3.22;;;;;;;22.79;71.42;100559.95;1750568;81;26465;-60
2022/08/01 06:44:08;;;;;;;2.60;2.40;;;;;;;22.81;70.92;100557.83;1750743;81;25794;-60
2022/08/01 06:46:35;;;;;;;7.10;3.72;;;;;;;22.92;71.43;100556.25;1761625;81;25793;-60
2022/08/01 06:49:02;;;;;;;8.33;4.12;;;;;;;22.96;70.22;100560.22;1769042;80;27546;-60
2022/08/01 06:51:29;;;;;;;6.70;3.10;;;;;;;22.97;69.30;100566.55;1768998;80;25739;-61
2022/08/01 06:53:56;;;;;;;2.50;2.15;;;;;;;23.09;69.85;100568.03;1769059;80;25866;-60
2022/08/01 06:56:23;;;;;;;9.05;5.35;;;;;;;23.18;69.26;100559.86;1741813;81;25801;-60
2022/08/01 06:58:53;;;;;;;5.20;3.58;;;;;;;23.31;69.82;100568.50;1719021;83;25754;-61
2022/08/01 07:01:19;;;;;;;4.40;2.30;;;;;;;23.44;69.20;100572.47;1745247;81;28622;-60
2022/08/01 07:03:47;;;;;;;10.65;2.95;;;;;;;23.56;69.26;100575.33;1768931;81;25733;-60
2022/08/01 07:06:14;;;;;;;3.72;2.22;;;;;;;23.66;68.08;100574.78;1769267;81;25756;-61
2022/08/01 07:08:41;;;;;;;9.68;5.42;;;;;;;23.69;67.44;100576.23;1768966;81;25794;-61
2022/08/01 07:11:08;;;;;;;5.37;4.15;;;;;;;23.66;67.46;100576.16;1769181;80;25762;-60
2022/08/01 07:13:35;;;;;;;8.08;2.30;;;;;;;23.54;66.58;100575.22;1769138;81;27407;-61
2022/08/01 07:16:03;;;;;;;3.52;3.02;;;;;;;23.53;65.57;100569.45;1769013;80;25618;-61
2022/08/01 07:18:30;;;;;;;7.53;2.20;;;;;;;23.39;66.43;100574.23;1769128;80;25703;-61
2022/08/01 07:20:57;;;;;;;2.52;2.30;;;;;;;23.44;65.69;100568.34;1750040;81;25723;-61
2022/08/01 07:23:24;;;;;;;3.67;2.20;;;;;;;23.44;66.16;100571.64;1729675;82;25522;-60
2022/08/01 07:25:52;;;;;;;3.17;2.45;;;;;;;23.45;66.49;100570.03;1729781;82;27400;-60
2022/08/01 07:28:19;;;;;;;4.90;2.47;;;;;;;23.44;66.82;100566.98;1729696;82;25781;-60
2022/08/01 07:30:46;;;;;;;3.67;2.55;;;;;;;23.52;65.87;100565.02;1729801;82;26134;-60
2022/08/01 07:33:13;;;;;;;5.78;2.10;;;;;;;23.46;66.10;100564.02;1729825;82;25858;-61
2022/08/01 07:35:40;;;;;;;2.45;2.25;;;;;;;23.54;66.15;100560.13;1729800;82;26308;-61
2022/08/01 07:38:07;;;;;;;3.35;2.02;;;;;;;23.65;65.80;100555.25;1729578;82;28322;-61
2022/08/01 07:40:35;;;;;;;5.22;2.95;;;;;;;23.68;65.86;100560.81;1729765;82;25835;-61
2022/08/01 07:43:02;;;;;;;3.25;2.62;;;;;;;23.85;65.55;100548.14;1729773;82;25788;-61
2022/08/01 07:45:30;;;;;;;7.28;2.30;;;;;;;24.06;65.28;100557.02;1732427;81;25952;-60
2022/08/01 07:47:57;;;;;;;4.40;2.20;;;;;;;24.23;64.17;100544.86;1750714;81;25996;-61
2022/08/01 07:50:24;;;;;;;7.85;2.12;;;;;;;24.36;64.28;100549.33;1729576;81;27423;-61
2022/08/01 07:52:51;;;;;;;2.30;2.00;;;;;;;24.39;63.67;100546.09;1750653;81;25489;-60
2022/08/01 07:55:17;;;;;;;4.85;2.20;;;;;;;24.41;63.57;100550.83;1747616;81;25815;-62
2022/08/01 07:57:44;;;;;;;3.60;2.25;;;;;;;24.50;63.50;100538.97;1714951;83;25849;-61
2022/08/01 08:00:13;;;;;;;3.27;2.30;;;;;;;24.54;62.46;100548.41;1716419;82;25801;-61
2022/08/01 08:02:40;;;;;;;3.92;2.00;;;;;;;24.26;61.48;100555.36;1748556;82;28194;-61
2022/08/01 08:05:09;;;;;;;2.95;2.17;;;;;;;24.10;62.70;100550.52;1748161;82;25751;-61
2022/08/01 08:07:36;;;;;;;5.70;3.17;;;;;;;24.01;62.72;100554.14;1748200;82;25769;-62
2022/08/01 08:10:05;;;;;;;6.35;1.72;;;;;;;24.00;62.96;100548.33;1748278;82;25768;-61
2022/08/01 08:12:32;;;;;;;2.72;1.92;;;;;;;24.04;62.49;100551.77;1748340;82;25718;-61
2022/08/01 08:15:00;;;;;;;2.87;1.70;;;;;;;23.96;61.77;100549.33;1748078;81;27468;-62
2022/08/01 08:17:27;;;;;;;6.47;2.17;;;;;;;24.14;62.28;100547.08;1748053;82;25909;-62
2022/08/01 08:19:54;;;;;;;2.65;2.00;;;;;;;24.35;62.72;100553.97;1748213;82;25766;-62
2022/08/01 08:22:21;;;;;;;4.08;1.77;;;;;;;24.64;61.12;100554.19;1748082;82;25829;-62
2022/08/01 08:24:48;;;;;;;4.33;1.60;;;;;;;24.78;60.99;100557.59;1743114;82;25514;-62
2022/08/01 08:27:15;;;;;;;2.50;1.70;;;;;;;24.66;59.74;100557.55;1741145;82;28307;-62
2022/08/01 08:29:42;;;;;;;3.62;1.72;;;;;;;24.59;60.66;100552.69;1740727;82;25825;-61
2022/08/01 08:32:09;;;;;;;4.35;1.80;;;;;;;24.71;60.67;100551.89;1741398;82;25726;-61
2022/08/01 08:34:36;;;;;;;1.82;1.70;;;;;;;24.84;59.30;100549.77;1741077;82;26565;-62
2022/08/01 08:37:04;;;;;;;1.87;1.50;;;;;;;24.98;58.75;100555.87;1740881;82;25715;-62
2022/08/01 08:39:31;;;;;;;1.95;1.70;;;;;;;24.93;57.52;100553.02;1741272;82;28302;-61
2022/08/01 08:42:01;;;;;;;4.80;1.40;;;;;;;24.89;58.61;100556.48;1741135;82;25751;-62
2022/08/01 08:44:28;;;;;;;3.30;1.60;;;;;;;24.74;58.04;100552.80;1741409;82;25829;-61
2022/08/01 08:46:58;;;;;;;4.72;1.80;;;;;;;24.58;59.03;100552.38;1727965;81;25796;-61
2022/08/01 08:49:29;;;;;;;2.62;1.77;;;;;;;24.50;59.70;100559.59;1722985;83;25497;-61
2022/08/01 08:52:01;;;;;;;1.77;1.65;;;;;;;24.54;60.17;100547.89;1723025;82;27556;-62
2022/08/01 08:54:30;;;;;;;3.35;2.10;;;;;;;24.49;60.52;100560.11;1723107;83;25780;-62
2022/08/01 08:56:59;;;;;;;4.53;1.98;;;;;;;24.47;60.70;100557.30;1744827;81;25814;-62
2022/08/01 08:59:27;;;;;;;2.42;2.22;;;;;;;24.48;60.63;100551.56;1751397;81;26376;-62
2022/08/01 09:01:56;;;;;;;3.87;1.98;;;;;;;24.54;60.63;100544.28;1732674;81;25831;-62
2022/08/01 09:04:24;;;;;;;6.47;2.40;;;;;;;24.78;60.74;100538.89;1727442;83;28263;-62
2022/08/01 09:06:52;;;;;;;2.15;1.98;;;;;;;25.10;59.94;100530.30;1726826;83;25551;-62
2022/08/01 09:09:18;;;;;;;7.47;2.17;;;;;;;25.22;57.56;100542.16;1727121;83;25898;-61
2022/08/01 09:11:46;;;;;;;5.85;2.00;;;;;;;25.25;57.97;100530.64;1727154;83;26154;-62
2022/08/01 09:14:23;;;;;;;3.40;1.72;;;;;;;25.45;58.11;100533.59;1727502;83;25451;-61
2022/08/01 09:16:47;;;;;;;4.55;1.80;;;;;;;25.68;58.46;100536.03;1726557;82;28417;-61
2022/08/01 09:19:17;;;;;;;3.95;1.70;;;;;;;26.04;55.94;100531.25;1726913;83;25851;-61
2022/08/01 09:22:03;;;;;;;2.83;1.72;;;;;;;26.30;54.28;100529.02;1727274;83;25774;-61
2022/08/01 09:24:32;;;;;;;5.50;1.92;;;;;;;26.30;53.54;100534.53;1730223;82;25790;-61
2022/08/01 09:27:00;;;;;;;6.37;1.98;;;;;;;26.63;53.50;100542.55;1734416;82;25755;-61
2022/08/01 09:29:33;;;;;;;7.42;1.50;;;;;;;26.73;51.28;100548.25;1734496;82;27469;-61
2022/08/01 09:32:05;;;;;;;4.55;1.62;;;;;;;26.76;52.74;100551.88;1734465;82;26140;-61
2022/08/01 09:34:32;;;;;;;1.57;1.47;;;;;;;26.72;51.66;100557.61;1734483;82;25839;-61
2022/08/01 09:37:03;;;;;;;2.22;1.12;;;;;;;26.61;51.38;100559.89;1734350;81;25844;-62
2022/08/01 09:39:33;;;;;;;2.42;1.35;;;;;;;26.58;50.66;100555.71;1734482;82;25763;-62
2022/08/01 09:42:11;;;;;;;4.47;1.17;;;;;;;26.40;51.17;100566.43;1734430;82;27473;-62
2022/08/01 09:44:42;;;;;;;1.30;1.20;;;;;;;26.23;51.72;100563.06;1729272;82;26203;-62
2022/08/01 09:47:09;;;;;;;1.02;1.00;;;;;;;26.08;52.72;100571.01;1764758;81;25733;-62
2022/08/01 09:49:39;;;;;;;4.15;1.50;;;;;;;25.96;52.65;100572.95;1771843;80;25842;-62
2022/08/01 09:52:18;;;;;;;4.53;1.12;;;;;;;26.07;52.59;100560.53;1771967;81;25795;-62
2022/08/01 09:55:02;;;;;;;5.20;1.00;;;;;;;26.33;52.29;100574.00;1771917;80;27475;-62
2022/08/01 09:57:30;;;;;;;1.55;1.25;;;;;;;26.64;51.41;100571.81;1741282;80;25740;-62
2022/08/01 10:00:00;;;;;;;1.20;1.10;;;;;;;26.71;49.09;100584.91;1740847;81;25764;-62
2022/08/01 10:02:39;;;;;;;0.70;0.70;;;;;;;26.72;49.67;100570.84;1746381;81;26754;-62
2022/08/01 10:05:10;;;;;;;0.60;0.60;;;;;;;26.92;48.08;100586.67;1748907;82;25900;-62
2022/08/01 10:07:59;;;;;;;2.87;0.85;;;;;;;26.65;49.57;100567.42;1748586;82;27471;-62
2022/08/01 10:10:27;;;;;;;1.45;0.80;;;;;;;26.86;50.61;100565.05;1748887;82;26067;-61
2022/08/01 10:12:57;;;;;;;0.60;0.60;;;;;;;27.12;50.92;100575.95;1748645;82;25831;-61
2022/08/01 10:15:27;;;;;;;3.40;0.70;;;;;;;27.58;50.21;100575.84;1748972;82;25994;-61
2022/08/01 10:17:58;;;;;;;4.97;0.90;;;;;;;27.40;49.41;100578.31;1748436;82;25901;-61
2022/08/01 10:20:29;;;;;;;3.08;0.50;;;;;;;27.39;49.18;100574.43;1748513;81;30975;-61
2022/08/01 10:23:01;;;;;;;2.75;1.07;;;;;;;27.11;50.05;100575.69;1748572;82;26155;-61
2022/08/01 10:25:33;;;;;;;0.68;0.68;;;;;;;27.37;50.01;100589.03;1748276;81;25847;-61
2022/08/01 10:28:06;;;;;;;1.25;0.90;;;;;;;27.34;49.96;100582.09;1749633;81;25808;-61
2022/08/01 10:30:33;;;;;;;1.10;0.78;;;;;;;27.29;49.75;100584.79;1749611;81;25449;-61
2022/08/01 10:33:00;;;;;;;2.47;0.90;;;;;;;27.29;50.05;100576.51;1716532;82;27532;-61
2022/08/01 10:35:28;;;;;;;2.25;0.88;;;;;;;27.70;49.27;100584.58;1714369;83;26415;-60
2022/08/01 10:37:57;;;;;;;3.47;0.78;;;;;;;27.80;48.78;100581.39;1712163;82;25772;-61
2022/08/01 10:40:24;;;;;;;0.70;0.70;;;;;;;27.84;48.93;100580.34;1714599;83;26038;-61
2022/08/01 10:42:52;;;;;;;3.10;0.60;;;;;;;28.32;48.23;100586.18;1714402;82;25730;-61
2022/08/01 10:45:20;;;;;;;1.37;0.60;;;;;;;27.88;47.69;100584.80;1715691;82;28284;-61
2022/08/01 10:48:13;;;;;;;1.25;0.75;;;;;;;27.59;48.76;100588.58;1714244;82;26180;-61
2022/08/01 10:50:49;;;;;;;;;;;;;;;27.43;48.88;100588.07;1711083;84;25717;-60
2022/08/01 10:53:22;;;;;;;2.33;1.45;;;;;;;27.37;49.13;100587.65;1708306;83;25842;-61
2022/08/01 10:56:00;;;;;;;3.65;1.45;;;;;;;27.33;49.13;100587.33;1703549;84;25780;-61
2022/08/01 10:58:32;;;;;;;0.60;0.50;;;;;;;27.30;49.28;100583.67;1708094;82;27515;-61
2022/08/01 11:01:24;;;;;;;1.12;0.70;;;;;;;27.05;48.29;100576.67;1749178;80;32601;-61
2022/08/01 11:04:09;;;;;;;2.27;0.85;;;;;;;26.94;48.68;100585.89;1735729;81;25875;-61
2022/08/01 11:06:50;;;;;;;4.87;0.85;;;;;;;27.01;47.39;100582.42;1713883;82;26543;-61
2022/08/01 11:09:42;;;;;;;0.72;0.72;;;;;;;27.23;48.69;100589.39;1709655;82;25797;-61
2022/08/01 11:12:16;;;;;;;2.00;0.90;;;;;;;27.71;47.15;100584.31;1718559;83;27645;-61
2022/08/01 11:15:04;;;;;;;3.05;1.20;;;;;;;28.25;46.63;100569.78;1722423;83;25828;-61
2022/08/01 11:17:51;;;;;;;0.80;0.78;;;;;;;28.76;45.66;100570.05;1680926;84;25775;-61
2022/08/01 11:20:25;;;;;;;1.42;0.70;;;;;;;28.63;45.50;100583.75;1680236;85;25740;-61
2022/08/01 11:23:06;;;;;;;4.58;0.90;;;;;;;28.52;45.63;100569.52;1708711;84;25806;-61
2022/08/01 11:25:45;;;;;;;4.15;1.32;;;;;;;28.22;46.50;100586.06;1680097;85;27534;-61
2022/08/01 11:28:23;;;;;;;5.15;0.88;;;;;;;28.20;46.08;100586.33;1686320;83;25772;-61
2022/08/01 11:30:51;;;;;;;0.80;0.60;;;;;;;28.19;46.25;100582.45;1657417;85;25740;-61
2022/08/01 11:33:39;;;;;;;1.22;0.60;;;;;;;27.72;46.40;100581.84;1685929;85;25932;-61
2022/08/01 11:36:17;;;;;;;1.20;0.60;;;;;;;27.86;46.77;100586.98;1696779;83;25793;-61
2022/08/01 11:38:59;;;;;;;1.45;0.60;;;;;;;27.64;46.58;100587.81;1657670;86;28317;-61
2022/08/01 11:41:30;;;;;;;1.40;0.75;;;;;;;27.62;47.61;100584.46;1681695;84;26483;-61